Main page
METAR-TAF:

METAR-TAF

Airports :

Rajahmundry Airport

Rajahmundry, India

latitude: 17-06-37N, longitude: 81-49-06E, elevation: 46 m

Current weather observation

The report was made 19 minutes ago, at 07:00 UTC
Wind 12 kt from the East
Temperature 31°C
Humidity 49%
Pressure 1014 hPa
Visibility: 6000 m
Few clouds at a height of 2000 ft

METAR: VORY 160700Z 08012KT 6000 FEW020 31/19 Q1014 NOSIG

Time: 12:49 (07:19 UTC)

Forecast

The report was made 2 hours and 19 minutes ago, at 05:00 UTC
Forecast valid from 16 at 06 UTC to 16 at 15 UTC
Wind 10 kt from the North/Northeast
Visibility: 6000 m
Scattered clouds at a height of 2000 ft

TAF: VORY 160500Z 1606/1615 03010KT 6000 SCT020

Weather observations and forecasts of more than 4000 airports (METAR and TAF reports).

The available stations are represented by yellow and red dots on the map.

Hover mouse over dot to see the name of the station.

Then click to see weather observations and forecasts.

To change the map : click on the green buttons with a black cross to zoom in, on the green button with a dash to zoom out, or on the green arrows for adjacent maps.


METAR-TAF: